Time;durP1;ratioP1;P1;durP2;ratioP2;P2;SDS_P1;SDS_P2;PMS_P1;PMS_P2;Temp;Humidity;BMP_temperature;BMP_pressure;BME280_temperature;BME280_humidity;BME280_pressure;Samples;Min_cycle;Max_cycle;Signal;HPM_P1;HPM_P2
2022/08/07 00:01:03;;;;;;;6.43;5.87;;;13.00;99.90;;;;;;2613189;54;20967;-78
2022/08/07 00:03:29;;;;;;;7.73;6.93;;;13.00;99.90;;;;;;2614544;54;20471;-79
2022/08/07 00:05:54;;;;;;;7.53;6.83;;;12.90;99.90;;;;;;2613515;47;21000;-78
2022/08/07 00:08:21;;;;;;;6.60;6.10;;;13.00;99.90;;;;;;2605736;54;20159;-78
2022/08/07 00:10:48;;;;;;;7.60;7.00;;;12.90;99.90;;;;;;2610279;54;20181;-73
2022/08/07 00:13:14;;;;;;;9.20;7.37;;;12.90;99.90;;;;;;2614307;54;20423;-73
2022/08/07 00:15:40;;;;;;;7.27;6.57;;;12.60;99.90;;;;;;2614584;54;20408;-73
2022/08/07 00:18:07;;;;;;;9.20;6.67;;;12.60;99.90;;;;;;2614381;54;20421;-73
2022/08/07 00:20:33;;;;;;;7.47;6.83;;;12.50;99.90;;;;;;2613766;47;20167;-78
2022/08/07 00:22:59;;;;;;;10.17;7.00;;;12.50;99.90;;;;;;2615201;31;20913;-78
2022/08/07 00:25:24;;;;;;;8.83;7.00;;;12.60;99.90;;;;;;2611938;54;20168;-73
2022/08/07 00:27:51;;;;;;;8.33;7.53;;;12.50;99.90;;;;;;2613430;54;20186;-74
2022/08/07 00:30:17;;;;;;;7.93;7.23;;;12.30;99.90;;;;;;2613868;54;20159;-74
2022/08/07 00:32:46;;;;;;;7.43;6.83;;;12.30;99.90;;;;;;2615034;39;20834;-74
2022/08/07 00:35:12;;;;;;;9.53;7.17;;;12.20;99.90;;;;;;2615090;54;20415;-80
2022/08/07 00:37:38;;;;;;;8.30;7.67;;;12.20;99.90;;;;;;2614608;39;20814;-82
2022/08/07 00:40:04;;;;;;;7.77;7.17;;;12.40;99.90;;;;;;2614522;54;20159;-79
2022/08/07 00:42:32;;;;;;;8.30;7.53;;;12.30;99.90;;;;;;2612118;54;20174;-79
2022/08/07 00:44:57;;;;;;;7.90;7.30;;;12.40;99.90;;;;;;2613424;54;20419;-74
2022/08/07 00:47:23;;;;;;;7.60;7.00;;;12.40;99.90;;;;;;2610694;54;20415;-74
2022/08/07 00:49:49;;;;;;;7.30;6.70;;;12.40;99.90;;;;;;2613715;54;20300;-83
2022/08/07 00:52:15;;;;;;;7.70;7.10;;;12.40;99.90;;;;;;2613600;54;20163;-82
2022/08/07 00:54:41;;;;;;;7.50;6.90;;;12.30;99.90;;;;;;2613992;54;20245;-80
2022/08/07 00:57:08;;;;;;;8.23;7.43;;;12.40;99.90;;;;;;2613794;54;20421;-80
2022/08/07 00:59:36;;;;;;;8.07;7.30;;;12.40;99.90;;;;;;2612241;54;20165;-74
2022/08/07 01:02:07;;;;;;;8.67;7.87;;;12.30;99.90;;;;;;2613261;54;20428;-74
2022/08/07 01:04:33;;;;;;;7.50;6.90;;;12.10;99.90;;;;;;2613898;54;20403;-80
2022/08/07 01:07:00;;;;;;;13.83;6.83;;;12.00;99.90;;;;;;2614439;39;20816;-81
2022/08/07 01:09:26;;;;;;;7.10;6.60;;;12.00;99.90;;;;;;2614115;54;20392;-80
2022/08/07 01:11:53;;;;;;;8.50;7.80;;;11.90;99.90;;;;;;2613640;54;20435;-80
2022/08/07 01:14:21;;;;;;;7.93;7.33;;;11.90;99.90;;;;;;2613784;54;20423;-80
2022/08/07 01:16:47;;;;;;;9.13;8.20;;;11.80;99.90;;;;;;2612739;54;20423;-80
2022/08/07 01:19:15;;;;;;;7.23;6.53;;;12.00;99.90;;;;;;2613861;54;20420;-80
2022/08/07 01:21:41;;;;;;;8.00;7.20;;;12.00;99.90;;;;;;2611902;47;21220;-80
2022/08/07 01:24:08;;;;;;;7.80;7.20;;;12.00;99.90;;;;;;2614075;54;20453;-82
2022/08/07 01:26:34;;;;;;;8.57;7.70;;;11.90;99.90;;;;;;2614293;54;20419;-82
2022/08/07 01:29:00;;;;;;;8.20;7.50;;;12.00;99.90;;;;;;2613897;54;20415;-74
2022/08/07 01:31:30;;;;;;;8.40;7.60;;;12.00;99.90;;;;;;2612291;54;20919;-74
2022/08/07 01:34:00;;;;;;;9.10;8.30;;;12.00;99.90;;;;;;2612618;54;20163;-82
2022/08/07 01:36:27;;;;;;;8.90;7.80;;;11.90;99.90;;;;;;2614471;54;20447;-82
2022/08/07 01:38:54;;;;;;;8.77;7.97;;;11.70;99.90;;;;;;2614129;54;20412;-80
2022/08/07 01:41:21;;;;;;;9.40;8.50;;;11.60;99.90;;;;;;2613927;47;21034;-80
2022/08/07 01:43:48;;;;;;;9.90;8.73;;;11.50;99.90;;;;;;2614566;54;20444;-80
2022/08/07 01:46:15;;;;;;;9.10;8.17;;;11.50;99.90;;;;;;2614044;54;20443;-79
2022/08/07 01:48:46;;;;;;;9.57;8.80;;;11.50;99.90;;;;;;2615774;54;20403;-74
2022/08/07 01:51:20;;;;;;;8.87;7.97;;;11.60;99.90;;;;;;2611923;47;20534;-74
2022/08/07 01:53:52;;;;;;;8.93;8.13;;;11.50;99.90;;;;;;2613355;54;20448;-78
2022/08/07 01:56:32;;;;;;;9.40;8.50;;;11.40;99.90;;;;;;2613679;54;20416;-79
2022/08/07 01:59:10;;;;;;;10.00;9.13;;;11.50;99.90;;;;;;2613514;54;20387;-74
2022/08/07 02:01:44;;;;;;;9.07;8.27;;;11.40;99.90;;;;;;2612386;54;20514;-74
2022/08/07 02:04:41;;;;;;;9.07;8.33;;;11.50;99.90;;;;;;2614051;39;20768;-80
2022/08/07 02:07:09;;;;;;;8.60;8.00;;;11.40;99.90;;;;;;2610882;54;20518;-75
2022/08/07 02:09:35;;;;;;;9.07;8.37;;;11.50;99.90;;;;;;2611833;54;20416;-80
2022/08/07 02:12:15;;;;;;;9.50;8.37;;;11.40;99.90;;;;;;2611562;54;20963;-79
2022/08/07 02:14:47;;;;;;;9.60;8.67;;;11.50;99.90;;;;;;2612612;54;20402;-80
2022/08/07 02:17:15;;;;;;;8.97;7.97;;;11.50;99.90;;;;;;2612753;54;20465;-79
2022/08/07 02:19:43;;;;;;;12.70;8.37;;;11.50;99.90;;;;;;2612261;54;21079;-79
2022/08/07 02:22:12;;;;;;;9.50;8.70;;;11.50;99.90;;;;;;2612140;54;20411;-80
2022/08/07 02:24:42;;;;;;;9.33;8.60;;;11.50;99.90;;;;;;2611915;54;20419;-81
2022/08/07 02:27:08;;;;;;;8.93;8.23;;;11.50;99.90;;;;;;2609185;54;20433;-80
2022/08/07 02:29:35;;;;;;;8.80;8.10;;;11.50;99.90;;;;;;2611359;54;20633;-81
2022/08/07 02:32:01;;;;;;;10.40;9.40;;;11.50;99.90;;;;;;2612793;39;20796;-81
2022/08/07 02:34:28;;;;;;;10.13;9.23;;;11.50;99.90;;;;;;2610719;54;20408;-75
2022/08/07 02:36:56;;;;;;;10.07;9.07;;;11.50;99.90;;;;;;2611179;39;20502;-74
2022/08/07 02:39:24;;;;;;;10.00;9.20;;;11.50;99.90;;;;;;2611994;39;20779;-74
2022/08/07 02:41:51;;;;;;;10.07;9.27;;;11.40;99.90;;;;;;2610807;54;21045;-75
2022/08/07 02:44:18;;;;;;;9.33;8.70;;;11.40;99.90;;;;;;2612513;47;20394;-74
2022/08/07 02:46:49;;;;;;;10.87;9.87;;;11.40;99.90;;;;;;2613669;54;20420;-74
2022/08/07 02:49:15;;;;;;;9.70;8.80;;;11.30;99.90;;;;;;2613005;54;20413;-80
2022/08/07 02:51:43;;;;;;;9.97;9.27;;;11.30;99.90;;;;;;2613693;54;20406;-80
2022/08/07 02:54:10;;;;;;;9.40;8.70;;;11.40;99.90;;;;;;2612785;47;20387;-80
2022/08/07 02:56:38;;;;;;;9.97;9.07;;;11.30;99.90;;;;;;2613003;54;20962;-80
2022/08/07 02:59:10;;;;;;;9.30;8.57;;;11.20;99.90;;;;;;2611638;54;20423;-83
2022/08/07 03:01:38;;;;;;;12.07;9.23;;;11.20;99.90;;;;;;2612845;54;20468;-82
2022/08/07 03:04:10;;;;;;;9.57;8.83;;;11.10;99.90;;;;;;2613630;39;20809;-74
2022/08/07 03:06:36;;;;;;;8.67;8.17;;;11.10;99.90;;;;;;2613069;54;20427;-74
2022/08/07 03:09:09;;;;;;;10.67;9.67;;;11.10;99.90;;;;;;2614786;39;20891;-78
2022/08/07 03:11:36;;;;;;;11.07;10.07;;;11.00;99.90;;;;;;2615075;54;20415;-78
2022/08/07 03:14:04;;;;;;;10.60;9.70;;;11.00;99.90;;;;;;2614448;54;21023;-79
2022/08/07 03:16:31;;;;;;;11.27;10.37;;;11.00;99.90;;;;;;2613145;47;20490;-79
2022/08/07 03:18:58;;;;;;;11.23;10.33;;;11.00;99.90;;;;;;2614724;39;20789;-80
2022/08/07 03:21:25;;;;;;;10.83;10.03;;;11.00;99.90;;;;;;2613730;54;20427;-80
2022/08/07 03:23:55;;;;;;;11.37;10.37;;;10.90;99.90;;;;;;2614739;39;20798;-80
2022/08/07 03:26:24;;;;;;;11.10;10.10;;;10.80;99.90;;;;;;2612361;54;20431;-79
2022/08/07 03:28:50;;;;;;;9.70;8.90;;;10.80;99.90;;;;;;2613478;54;20502;-79
2022/08/07 03:31:18;;;;;;;10.30;9.40;;;10.50;99.90;;;;;;2614152;54;20398;-74
2022/08/07 03:33:47;;;;;;;10.73;9.83;;;10.50;99.90;;;;;;2613539;39;20758;-74
2022/08/07 03:36:14;;;;;;;9.90;9.10;;;10.50;99.90;;;;;;2614295;54;20456;-79
2022/08/07 03:38:41;;;;;;;13.73;10.00;;;10.70;99.90;;;;;;2613955;54;20993;-79
2022/08/07 03:41:08;;;;;;;10.13;9.33;;;10.80;99.90;;;;;;2614788;54;20407;-79
2022/08/07 03:43:35;;;;;;;10.60;9.70;;;10.80;99.90;;;;;;2612928;54;20406;-80
2022/08/07 03:46:05;;;;;;;10.30;9.40;;;10.90;99.90;;;;;;2613160;39;20788;-78
2022/08/07 03:48:33;;;;;;;9.60;8.70;;;10.90;99.90;;;;;;2614018;54;20428;-79
2022/08/07 03:51:00;;;;;;;9.50;8.80;;;10.90;99.90;;;;;;2614339;54;20431;-74
2022/08/07 03:53:26;;;;;;;11.63;8.90;;;10.70;99.90;;;;;;2614423;39;20825;-73
2022/08/07 03:55:54;;;;;;;9.93;8.93;;;10.70;99.90;;;;;;2614777;47;20517;-79
2022/08/07 03:58:22;;;;;;;12.63;10.77;;;10.70;99.90;;;;;;2613518;47;20205;-79
2022/08/07 04:00:51;;;;;;;11.33;9.57;;;10.80;99.90;;;;;;2613798;54;20410;-80
2022/08/07 04:03:17;;;;;;;14.10;10.10;;;10.90;99.90;;;;;;2614254;54;20431;-80
2022/08/07 04:05:43;;;;;;;10.30;9.23;;;10.80;99.90;;;;;;2614367;54;20416;-74
2022/08/07 04:08:10;;;;;;;11.47;10.37;;;10.70;99.90;;;;;;2612268;47;20529;-74
2022/08/07 04:10:36;;;;;;;12.00;8.87;;;10.80;99.90;;;;;;2613953;54;20164;-74
2022/08/07 04:13:02;;;;;;;12.97;9.37;;;10.80;99.90;;;;;;2613263;54;20422;-74
2022/08/07 04:15:28;;;;;;;10.20;9.20;;;10.50;99.90;;;;;;2613958;54;20435;-79
2022/08/07 04:17:54;;;;;;;10.27;9.30;;;10.60;99.90;;;;;;2612863;54;20403;-80
2022/08/07 04:20:20;;;;;;;10.23;9.33;;;10.60;99.90;;;;;;2613345;54;21004;-74
2022/08/07 04:22:48;;;;;;;18.60;9.90;;;10.60;99.90;;;;;;2612469;54;20633;-74
2022/08/07 04:25:16;;;;;;;10.87;9.83;;;10.70;99.90;;;;;;2613860;54;20465;-74
2022/08/07 04:27:42;;;;;;;16.27;9.47;;;10.80;99.90;;;;;;2612255;54;21042;-74
2022/08/07 04:30:08;;;;;;;12.83;9.10;;;10.80;99.90;;;;;;2614775;54;20434;-80
2022/08/07 04:32:34;;;;;;;12.03;9.50;;;10.80;99.90;;;;;;2614937;46;20185;-79
2022/08/07 04:35:02;;;;;;;9.80;8.90;;;10.80;99.90;;;;;;2612519;54;20414;-80
2022/08/07 04:37:28;;;;;;;14.53;10.83;;;10.80;99.90;;;;;;2614535;54;20166;-81
2022/08/07 04:39:53;;;;;;;12.07;10.93;;;10.80;99.90;;;;;;2614128;54;20462;-83
2022/08/07 04:42:19;;;;;;;15.57;9.57;;;10.70;99.90;;;;;;2614393;54;20206;-83
2022/08/07 04:44:45;;;;;;;10.77;9.73;;;10.80;99.90;;;;;;2613489;47;20213;-81
2022/08/07 04:47:19;;;;;;;10.60;9.60;;;10.70;99.90;;;;;;2614626;54;20159;-80
2022/08/07 04:50:01;;;;;;;12.23;9.50;;;10.70;99.90;;;;;;2611701;46;20166;-74
2022/08/07 04:52:59;;;;;;;10.93;9.93;;;10.80;99.90;;;;;;2610884;54;20510;-74
2022/08/07 04:55:35;;;;;;;9.93;9.10;;;10.80;99.90;;;;;;2613840;54;20422;-78
2022/08/07 04:58:10;;;;;;;11.57;10.37;;;11.00;99.90;;;;;;2613287;39;20488;-78
2022/08/07 05:00:58;;;;;;;11.00;10.00;;;11.20;99.90;;;;;;2607348;39;20844;-79
2022/08/07 05:03:52;;;;;;;10.70;9.90;;;11.40;99.90;;;;;;2613227;39;20895;-78
2022/08/07 05:06:34;;;;;;;11.13;10.03;;;11.60;99.90;;;;;;2610433;54;20522;-74
2022/08/07 05:09:20;;;;;;;10.33;9.23;;;11.80;99.90;;;;;;2611159;54;20431;-77
2022/08/07 05:11:50;;;;;;;9.43;8.73;;;12.10;99.90;;;;;;2606374;54;20502;-79
2022/08/07 05:14:34;;;;;;;10.97;10.07;;;12.30;99.90;;;;;;2611124;47;20432;-73
2022/08/07 05:17:02;;;;;;;10.47;9.43;;;12.50;99.90;;;;;;2612130;54;20401;-74
2022/08/07 05:19:36;;;;;;;10.57;9.30;;;12.60;99.90;;;;;;2612980;54;20527;-78
2022/08/07 05:22:03;;;;;;;10.67;9.57;;;12.80;99.90;;;;;;2612791;39;20875;-78
2022/08/07 05:24:30;;;;;;;10.50;9.50;;;13.10;99.90;;;;;;2606228;54;20449;-80
2022/08/07 05:26:58;;;;;;;10.33;9.00;;;13.30;99.90;;;;;;2610394;39;20484;-80
2022/08/07 05:29:26;;;;;;;9.90;9.20;;;13.50;99.90;;;;;;2611155;39;20769;-74
2022/08/07 05:31:53;;;;;;;9.30;8.27;;;13.70;99.90;;;;;;2611147;54;20545;-75
2022/08/07 05:34:19;;;;;;;10.07;9.23;;;14.10;99.90;;;;;;2612586;54;20449;-74
2022/08/07 05:36:48;;;;;;;9.70;8.20;;;14.80;99.90;;;;;;2612281;54;20414;-74
2022/08/07 05:39:15;;;;;;;9.90;9.03;;;14.70;99.90;;;;;;2612808;54;20429;-78
2022/08/07 05:41:42;;;;;;;8.97;8.27;;;15.50;99.90;;;;;;2612684;54;20417;-78
2022/08/07 05:44:08;;;;;;;9.47;8.67;;;16.30;99.90;;;;;;2611498;54;20536;-78
2022/08/07 05:46:36;;;;;;;8.83;8.10;;;16.70;99.90;;;;;;2610051;54;20532;-78
2022/08/07 05:49:05;;;;;;;8.87;8.17;;;17.00;99.90;;;;;;2611168;47;20425;-78
2022/08/07 05:51:31;;;;;;;9.03;8.43;;;17.20;99.90;;;;;;2614025;54;20490;-77
2022/08/07 05:53:56;;;;;;;9.77;9.07;;;17.50;99.90;;;;;;2614246;54;20434;-77
2022/08/07 05:56:23;;;;;;;9.73;9.00;;;17.20;96.80;;;;;;2613448;54;20165;-79
2022/08/07 05:58:49;;;;;;;10.10;9.40;;;17.80;97.00;;;;;;2613619;54;20249;-80
2022/08/07 06:01:16;;;;;;;9.67;8.77;;;17.80;93.80;;;;;;2612396;54;20436;-79
2022/08/07 06:03:49;;;;;;;10.00;9.30;;;17.50;92.10;;;;;;2614036;54;20479;-79
2022/08/07 06:06:16;;;;;;;8.80;8.20;;;17.70;96.70;;;;;;2613946;54;20434;-75
2022/08/07 06:08:42;;;;;;;8.60;7.90;;;17.70;91.60;;;;;;2613565;54;20449;-75
2022/08/07 06:11:08;;;;;;;11.23;8.80;;;18.00;91.10;;;;;;2612748;54;20431;-78
2022/08/07 06:13:38;;;;;;;10.10;9.17;;;18.40;77.40;;;;;;2614326;54;20984;-78
2022/08/07 06:16:06;;;;;;;8.97;8.17;;;18.80;62.80;;;;;;2614235;54;20944;-82
2022/08/07 06:18:32;;;;;;;9.17;8.40;;;18.50;62.40;;;;;;2614498;54;20431;-82
2022/08/07 06:21:02;;;;;;;10.23;9.23;;;18.40;60.80;;;;;;2614817;54;21161;-83
2022/08/07 06:23:30;;;;;;;9.27;8.67;;;17.90;62.10;;;;;;2613322;47;20428;-82
2022/08/07 06:25:57;;;;;;;9.60;8.80;;;19.00;57.90;;;;;;2613915;54;20536;-79
2022/08/07 06:28:23;;;;;;;9.10;8.50;;;18.70;56.50;;;;;;2613245;54;21320;-77
2022/08/07 06:30:49;;;;;;;9.60;8.60;;;19.30;55.20;;;;;;2614292;54;20450;-74
2022/08/07 06:33:16;;;;;;;8.77;8.17;;;19.60;50.20;;;;;;2613931;54;20426;-74
2022/08/07 06:35:42;;;;;;;8.33;7.60;;;19.40;38.60;;;;;;2613966;54;20515;-78
2022/08/07 06:38:07;;;;;;;7.80;7.30;;;19.50;43.80;;;;;;2613151;54;20423;-77
2022/08/07 06:40:39;;;;;;;8.50;7.80;;;19.70;38.80;;;;;;2620086;54;20184;-84
2022/08/07 06:43:08;;;;;;;8.27;7.73;;;19.90;39.00;;;;;;2623311;54;20147;-85
2022/08/07 06:45:34;;;;;;;8.20;7.60;;;20.10;37.70;;;;;;2621272;54;20423;-80
2022/08/07 06:48:00;;;;;;;7.53;7.13;;;19.90;33.00;;;;;;2615120;54;20408;-82
2022/08/07 06:50:28;;;;;;;7.80;7.20;;;20.50;32.40;;;;;;2614301;54;20444;-78
2022/08/07 06:52:55;;;;;;;8.03;7.07;;;20.70;28.20;;;;;;2613624;54;20423;-77
2022/08/07 06:55:27;;;;;;;7.70;7.00;;;20.10;29.90;;;;;;2614898;39;20945;-82
2022/08/07 06:58:00;;;;;;;6.90;6.50;;;20.20;28.20;;;;;;2614762;54;20445;-83
2022/08/07 07:00:31;;;;;;;6.17;5.77;;;20.00;29.10;;;;;;2614133;54;20427;-79
2022/08/07 07:02:57;;;;;;;6.77;6.37;;;20.60;27.50;;;;;;2613651;54;20697;-78
2022/08/07 07:05:23;;;;;;;7.43;6.87;;;20.70;22.60;;;;;;2612954;54;20458;-85
2022/08/07 07:07:48;;;;;;;6.83;6.43;;;20.70;20.30;;;;;;2614036;47;20443;-86
2022/08/07 07:10:16;;;;;;;6.67;6.27;;;20.90;20.40;;;;;;2613659;54;20164;-77
2022/08/07 07:12:57;;;;;;;7.10;6.63;;;21.10;19.30;;;;;;2613869;54;20168;-78
2022/08/07 07:15:29;;;;;;;8.20;7.70;;;21.60;19.60;;;;;;2614350;39;20879;-85
2022/08/07 07:18:20;;;;;;;7.00;6.60;;;21.70;16.40;;;;;;2614107;54;20399;-84
2022/08/07 07:20:54;;;;;;;7.63;7.20;;;21.90;13.50;;;;;;2612486;54;20434;-82
2022/08/07 07:23:21;;;;;;;7.77;7.27;;;21.80;16.50;;;;;;2613391;39;20841;-83
2022/08/07 07:25:50;;;;;;;7.10;6.70;;;21.80;13.30;;;;;;2613190;39;20778;-83
2022/08/07 07:28:24;;;;;;;7.87;7.47;;;21.70;13.60;;;;;;2612458;54;20432;-83
2022/08/07 07:30:59;;;;;;;7.60;7.20;;;22.10;13.70;;;;;;2612980;54;20439;-84
2022/08/07 07:33:27;;;;;;;7.93;7.20;;;22.00;15.20;;;;;;2612629;54;20431;-84
2022/08/07 07:35:54;;;;;;;9.40;8.80;;;22.10;14.30;;;;;;2612780;54;20418;-83
2022/08/07 07:38:24;;;;;;;8.40;8.00;;;21.40;14.60;;;;;;2612597;54;20410;-83
2022/08/07 07:40:53;;;;;;;8.33;7.93;;;22.60;12.10;;;;;;2612525;54;20967;-82
2022/08/07 07:43:20;;;;;;;8.00;7.63;;;22.00;12.40;;;;;;2613522;31;20982;-82
2022/08/07 07:45:48;;;;;;;8.17;7.77;;;22.00;13.10;;;;;;2612732;54;20424;-75
2022/08/07 07:48:18;;;;;;;7.73;7.33;;;22.80;11.90;;;;;;2612149;54;20424;-75
2022/08/07 07:50:49;;;;;;;7.23;6.47;;;22.70;9.50;;;;;;2613099;46;20465;-82
2022/08/07 07:53:18;;;;;;;7.10;6.60;;;23.10;7.30;;;;;;2614824;39;20829;-82
2022/08/07 07:55:44;;;;;;;7.37;6.83;;;23.50;8.40;;;;;;2614313;46;21013;-83
2022/08/07 07:58:12;;;;;;;7.00;6.60;;;23.30;7.80;;;;;;2614668;54;20424;-82
2022/08/07 08:00:39;;;;;;;6.67;6.17;;;23.60;5.40;;;;;;2614375;54;20177;-83
2022/08/07 08:03:08;;;;;;;6.30;6.00;;;23.80;3.50;;;;;;2614728;54;20438;-82
2022/08/07 08:05:40;;;;;;;6.83;6.53;;;24.00;1.00;;;;;;2613928;54;20423;-75
2022/08/07 08:08:09;;;;;;;6.50;6.00;;;24.10;1.60;;;;;;2614251;54;20429;-75
2022/08/07 08:10:35;;;;;;;6.80;6.40;;;23.00;3.30;;;;;;2614442;54;20457;-75
2022/08/07 08:13:03;;;;;;;6.50;6.20;;;24.10;1.00;;;;;;2614256;54;20661;-76
2022/08/07 08:15:32;;;;;;;6.10;5.80;;;24.00;1.20;;;;;;2614732;47;20550;-83
2022/08/07 08:17:59;;;;;;;5.90;5.60;;;24.80;1.00;;;;;;2615132;39;20893;-82
2022/08/07 08:20:27;;;;;;;6.03;5.73;;;24.20;1.00;;;;;;2615009;39;20803;-84
2022/08/07 08:28:28;;;;;;;6.00;5.70;;;24.90;1.00;;;;;;2614246;54;20454;-75
2022/08/07 08:30:59;;;;;;;5.17;4.97;;;24.70;1.00;;;;;;2614422;54;20413;-74
2022/08/07 08:33:33;;;;;;;5.53;5.33;;;25.10;1.00;;;;;;2614440;47;20438;-75
2022/08/07 08:36:00;;;;;;;5.43;5.17;;;24.60;1.00;;;;;;2614057;39;20791;-78
2022/08/07 08:38:32;;;;;;;5.40;5.20;;;24.60;1.00;;;;;;2614489;54;20400;-78
2022/08/07 08:41:09;;;;;;;6.03;5.83;;;24.80;1.00;;;;;;2614555;54;20413;-82
2022/08/07 08:43:53;;;;;;;6.10;5.70;;;25.20;1.00;;;;;;2614599;54;20404;-82
2022/08/07 08:46:42;;;;;;;5.00;4.80;;;25.60;1.00;;;;;;2614693;54;20442;-79
2022/08/07 08:49:47;;;;;;;5.70;5.50;;;25.70;1.00;;;;;;2614300;39;20794;-79
2022/08/07 08:52:43;;;;;;;5.10;4.80;;;25.60;1.00;;;;;;2613130;39;20817;-79
2022/08/07 08:55:12;;;;;;;5.47;5.17;;;25.20;1.00;;;;;;2612946;54;20426;-83
2022/08/07 08:57:44;;;;;;;5.00;4.80;;;25.60;1.00;;;;;;2614024;31;20874;-83
2022/08/07 09:00:11;;;;;;;5.80;5.53;;;25.10;1.00;;;;;;2613365;47;20521;-81
2022/08/07 09:03:01;;;;;;;5.10;4.90;;;25.40;1.00;;;;;;2612678;54;20447;-82
2022/08/07 09:05:49;;;;;;;5.20;4.80;;;25.60;1.00;;;;;;2613026;54;20468;-82
2022/08/07 09:08:22;;;;;;;5.30;4.90;;;26.10;1.00;;;;;;2612955;54;20988;-82
2022/08/07 09:11:03;;;;;;;5.13;4.80;;;25.30;1.00;;;;;;2612769;47;20420;-76
2022/08/07 09:13:58;;;;;;;4.87;4.67;;;26.00;1.00;;;;;;2612587;54;20407;-75
2022/08/07 09:16:40;;;;;;;4.70;4.50;;;25.80;1.00;;;;;;2612515;47;20964;-76
2022/08/07 09:19:29;;;;;;;5.10;4.90;;;25.90;1.00;;;;;;2612742;54;21286;-82
2022/08/07 09:22:44;;;;;;;5.10;4.70;;;26.30;1.00;;;;;;2614724;54;20401;-83
2022/08/07 09:25:11;;;;;;;5.37;5.07;;;26.00;1.00;;;;;;2614019;54;20388;-82
2022/08/07 09:28:03;;;;;;;4.50;4.30;;;26.40;1.00;;;;;;2613150;54;20424;-82
2022/08/07 09:30:59;;;;;;;5.00;4.70;;;26.60;1.00;;;;;;2612666;54;20548;-79
2022/08/07 09:33:43;;;;;;;4.80;4.60;;;26.30;1.00;;;;;;2612992;54;20404;-78
2022/08/07 09:36:27;;;;;;;4.87;4.67;;;25.80;1.00;;;;;;2612826;39;20807;-76
2022/08/07 09:38:59;;;;;;;4.80;4.60;;;26.80;1.00;;;;;;2612603;54;20423;-75
2022/08/07 09:41:42;;;;;;;5.17;4.97;;;26.10;1.00;;;;;;2612745;54;20405;-75
2022/08/07 09:44:20;;;;;;;4.93;4.73;;;25.40;1.00;;;;;;2613078;54;20564;-82
2022/08/07 09:47:02;;;;;;;5.10;4.80;;;25.10;1.00;;;;;;2613927;47;20444;-82
2022/08/07 09:50:03;;;;;;;4.90;4.60;;;26.40;1.00;;;;;;2614371;39;20812;-81
2022/08/07 09:52:50;;;;;;;4.50;4.20;;;25.70;1.00;;;;;;2613594;54;20417;-81
2022/08/07 09:55:34;;;;;;;4.97;4.77;;;26.60;1.00;;;;;;2614219;54;20407;-84
2022/08/07 09:58:25;;;;;;;5.57;5.20;;;26.40;1.00;;;;;;2614144;54;20445;-84
2022/08/07 10:01:00;;;;;;;4.93;4.73;;;26.80;1.00;;;;;;2614819;54;20419;-77
2022/08/07 10:03:48;;;;;;;4.20;4.10;;;26.70;1.00;;;;;;2614210;46;20435;-78
2022/08/07 10:06:32;;;;;;;4.67;4.47;;;26.80;1.00;;;;;;2614552;39;20790;-75
2022/08/07 10:09:28;;;;;;;4.93;4.63;;;25.90;1.00;;;;;;2613960;39;20833;-76
2022/08/07 10:12:16;;;;;;;4.80;4.60;;;27.00;1.00;;;;;;2613441;54;20995;-76
2022/08/07 10:15:23;;;;;;;12.20;4.70;;;26.80;1.00;;;;;;2614396;54;20454;-83
2022/08/07 10:18:00;;;;;;;4.87;4.67;;;26.20;1.00;;;;;;2614604;54;20505;-81
2022/08/07 10:20:56;;;;;;;4.93;4.63;;;25.90;1.00;;;;;;2614648;54;20439;-81
2022/08/07 10:23:27;;;;;;;5.23;4.87;;;25.80;1.00;;;;;;2614863;54;20428;-81
2022/08/07 10:26:21;;;;;;;4.70;4.50;;;26.70;1.00;;;;;;2614344;54;20448;-75
2022/08/07 10:29:05;;;;;;;5.17;4.77;;;26.80;1.00;;;;;;2614010;54;20455;-75
2022/08/07 10:31:52;;;;;;;4.27;4.10;;;26.60;1.00;;;;;;2614096;54;20415;-79
2022/08/07 10:34:58;;;;;;;4.70;4.50;;;27.30;1.00;;;;;;2614402;54;20434;-80
2022/08/07 10:37:49;;;;;;;4.70;4.43;;;26.20;1.00;;;;;;2612469;54;20421;-81
2022/08/07 10:40:26;;;;;;;4.50;4.30;;;27.50;1.00;;;;;;2612404;47;20448;-83
2022/08/07 10:43:16;;;;;;;5.23;5.03;;;26.90;1.00;;;;;;2612988;54;20483;-83
2022/08/07 10:45:48;;;;;;;5.00;4.80;;;26.80;1.00;;;;;;2613316;47;20418;-82
2022/08/07 10:48:39;;;;;;;5.00;4.80;;;27.30;1.00;;;;;;2612549;54;20452;-83
2022/08/07 10:51:53;;;;;;;4.70;4.50;;;27.00;1.00;;;;;;2612379;54;20418;-79
2022/08/07 10:54:35;;;;;;;4.67;4.47;;;27.00;1.00;;;;;;2612220;46;20522;-79
2022/08/07 10:57:33;;;;;;;4.50;4.20;;;27.10;1.00;;;;;;2612493;54;20450;-79
2022/08/07 11:00:09;;;;;;;4.20;4.00;;;27.20;1.00;;;;;;2612612;54;21059;-83
2022/08/07 11:02:43;;;;;;;4.57;4.37;;;27.70;1.00;;;;;;2612710;46;20432;-82
2022/08/07 11:05:43;;;;;;;4.50;4.30;;;27.60;1.00;;;;;;2612775;54;20564;-83
2022/08/07 11:08:12;;;;;;;4.57;4.37;;;27.40;1.00;;;;;;2612292;54;20516;-82
2022/08/07 11:11:06;;;;;;;4.73;4.53;;;26.80;1.00;;;;;;2612199;54;20438;-80
2022/08/07 11:13:37;;;;;;;5.00;4.70;;;27.10;1.00;;;;;;2612307;54;20426;-80
2022/08/07 11:16:39;;;;;;;4.73;4.53;;;27.90;1.00;;;;;;2612894;54;20431;-82
2022/08/07 11:19:36;;;;;;;4.70;4.40;;;27.90;1.00;;;;;;2612857;54;20438;-80
2022/08/07 11:22:32;;;;;;;4.50;4.20;;;27.80;1.00;;;;;;2612009;54;20434;-80
2022/08/07 11:25:02;;;;;;;4.57;4.37;;;27.40;1.00;;;;;;2612754;54;20589;-79
2022/08/07 11:27:34;;;;;;;4.60;4.40;;;26.90;1.00;;;;;;2613556;54;20411;-79
2022/08/07 11:30:06;;;;;;;4.83;4.63;;;27.30;1.00;;;;;;2613774;54;20410;-82
2022/08/07 11:32:38;;;;;;;4.60;4.40;;;27.20;1.00;;;;;;2614331;54;20443;-82
2022/08/07 11:35:21;;;;;;;4.80;4.60;;;27.70;1.00;;;;;;2616871;54;20418;-82
2022/08/07 11:37:49;;;;;;;4.97;4.63;;;28.20;1.00;;;;;;2618448;54;20440;-80
2022/08/07 11:40:50;;;;;;;4.60;4.40;;;28.00;1.00;;;;;;2618435;54;20413;-82
2022/08/07 11:43:21;;;;;;;4.53;4.23;;;27.70;1.00;;;;;;2615900;39;20866;-83
2022/08/07 11:46:03;;;;;;;4.90;4.57;;;28.10;1.00;;;;;;2614396;54;20447;-82
2022/08/07 11:48:58;;;;;;;4.50;4.30;;;27.70;1.00;;;;;;2612855;54;20426;-82
2022/08/07 11:51:52;;;;;;;4.63;4.23;;;26.90;1.00;;;;;;2613653;54;20425;-82
2022/08/07 11:54:32;;;;;;;4.27;4.10;;;28.10;1.00;;;;;;2613462;54;20430;-81
2022/08/07 11:57:19;;;;;;;4.50;4.30;;;28.20;1.00;;;;;;2612563;46;21021;-80
2022/08/07 12:00:12;;;;;;;4.50;4.30;;;28.20;1.00;;;;;;2612895;47;20463;-86
2022/08/07 12:02:41;;;;;;;4.57;4.37;;;27.40;1.00;;;;;;2613772;54;20985;-86
2022/08/07 12:05:33;;;;;;;4.37;4.17;;;27.30;1.00;;;;;;2613719;54;20407;-80
2022/08/07 12:08:04;;;;;;;4.53;4.33;;;27.60;1.00;;;;;;2612753;54;20422;-81
2022/08/07 12:10:57;;;;;;;4.90;4.43;;;28.20;1.00;;;;;;2612852;54;20438;-80
2022/08/07 12:13:28;;;;;;;4.60;4.40;;;28.20;1.00;;;;;;2612747;54;20425;-79
2022/08/07 12:16:09;;;;;;;4.60;4.27;;;27.80;1.00;;;;;;2613248;54;20411;-80
2022/08/07 12:19:12;;;;;;;4.50;4.30;;;28.20;1.00;;;;;;2612829;54;20426;-80
2022/08/07 12:21:51;;;;;;;4.90;4.63;;;28.40;1.00;;;;;;2612674;54;20405;-82
2022/08/07 12:27:43;;;;;;;5.30;5.00;;;26.40;1.00;;;;;;2612770;54;20488;-79
2022/08/07 12:30:10;;;;;;;4.87;4.67;;;27.80;1.00;;;;;;2612914;54;20441;-83
2022/08/07 12:32:45;;;;;;;5.13;4.83;;;28.20;1.00;;;;;;2613704;39;20713;-83
2022/08/07 12:35:13;;;;;;;5.10;4.90;;;28.50;1.00;;;;;;2613152;54;21358;-76
2022/08/07 12:37:47;;;;;;;4.67;4.47;;;28.10;1.00;;;;;;2612170;54;20418;-76
2022/08/07 12:40:18;;;;;;;4.67;4.47;;;28.40;1.00;;;;;;2613272;54;20500;-79
2022/08/07 12:42:44;;;;;;;5.00;4.80;;;27.90;1.00;;;;;;2613132;54;20423;-79
2022/08/07 12:45:17;;;;;;;4.37;4.20;;;28.50;1.00;;;;;;2612875;54;20425;-76
2022/08/07 12:48:06;;;;;;;4.73;4.53;;;27.70;1.00;;;;;;2612404;47;20941;-76
2022/08/07 12:50:53;;;;;;;4.90;4.70;;;27.00;1.00;;;;;;2613236;54;20496;-84
2022/08/07 12:53:40;;;;;;;4.70;4.40;;;27.20;1.00;;;;;;2613334;54;20410;-83
2022/08/07 12:56:26;;;;;;;5.30;4.90;;;27.80;1.00;;;;;;2613561;46;20413;-82
2022/08/07 12:58:52;;;;;;;4.93;4.63;;;25.80;1.00;;;;;;2613202;54;20402;-82
2022/08/07 13:01:36;;;;;;;4.90;4.60;;;26.70;1.00;;;;;;2612747;54;20450;-75
2022/08/07 13:04:23;;;;;;;4.60;4.40;;;26.90;1.00;;;;;;2613001;54;20506;-75
2022/08/07 13:06:48;;;;;;;4.80;4.60;;;26.40;1.00;;;;;;2613133;54;20566;-81
2022/08/07 13:09:17;;;;;;;4.90;4.47;;;27.30;1.00;;;;;;2613036;47;20428;-75
2022/08/07 13:12:10;;;;;;;4.87;4.57;;;28.20;1.00;;;;;;2611892;54;20199;-75
2022/08/07 13:14:47;;;;;;;4.50;4.30;;;27.90;1.00;;;;;;2612926;54;20529;-82
2022/08/07 13:17:39;;;;;;;4.67;4.37;;;28.00;1.00;;;;;;2613540;54;20425;-82
2022/08/07 13:20:11;;;;;;;5.37;4.30;;;28.20;1.00;;;;;;2612744;54;20436;-76
2022/08/07 13:22:59;;;;;;;5.07;4.77;;;28.20;1.00;;;;;;2612800;54;20461;-76
2022/08/07 13:25:26;;;;;;;4.60;4.40;;;28.30;1.00;;;;;;2612854;54;20433;-75
2022/08/07 13:28:23;;;;;;;4.77;4.57;;;28.20;1.00;;;;;;2612556;54;20449;-75
2022/08/07 13:31:03;;;;;;;4.63;4.43;;;27.50;1.00;;;;;;2613297;47;21041;-84